sensor_id;sensor_type;location;lat;lon;timestamp;temperature;humidity
60033;DHT22;45905;50.570;10.428;2022-12-07T00:01:42;1.80;99.90
60033;DHT22;45905;50.570;10.428;2022-12-07T00:04:13;1.80;99.90
60033;DHT22;45905;50.570;10.428;2022-12-07T00:06:43;1.90;99.90
60033;DHT22;45905;50.570;10.428;2022-12-07T00:09:16;1.90;99.90
60033;DHT22;45905;50.570;10.428;2022-12-07T00:11:47;1.80;99.90
60033;DHT22;45905;50.570;10.428;2022-12-07T00:14:17;1.80;99.90
60033;DHT22;45905;50.570;10.428;2022-12-07T00:16:45;1.80;99.90
60033;DHT22;45905;50.570;10.428;2022-12-07T00:19:16;1.90;99.90
60033;DHT22;45905;50.570;10.428;2022-12-07T00:21:43;1.80;99.90
60033;DHT22;45905;50.570;10.428;2022-12-07T00:24:11;1.80;99.90
60033;DHT22;45905;50.570;10.428;2022-12-07T00:26:40;1.80;99.90
60033;DHT22;45905;50.570;10.428;2022-12-07T00:29:16;1.80;99.90
60033;DHT22;45905;50.570;10.428;2022-12-07T00:31:48;1.70;99.90
60033;DHT22;45905;50.570;10.428;2022-12-07T00:34:19;1.70;99.90
60033;DHT22;45905;50.570;10.428;2022-12-07T00:36:48;1.80;99.90
60033;DHT22;45905;50.570;10.428;2022-12-07T00:39:16;1.80;99.90
60033;DHT22;45905;50.570;10.428;2022-12-07T00:41:43;1.80;99.90
60033;DHT22;45905;50.570;10.428;2022-12-07T00:44:10;1.90;99.90
60033;DHT22;45905;50.570;10.428;2022-12-07T00:46:37;1.80;99.90
60033;DHT22;45905;50.570;10.428;2022-12-07T00:49:04;1.80;99.90
60033;DHT22;45905;50.570;10.428;2022-12-07T00:51:31;1.80;99.90
60033;DHT22;45905;50.570;10.428;2022-12-07T00:53:59;2.00;99.90
60033;DHT22;45905;50.570;10.428;2022-12-07T00:56:28;1.90;99.90
60033;DHT22;45905;50.570;10.428;2022-12-07T00:59:00;1.90;99.90
60033;DHT22;45905;50.570;10.428;2022-12-07T01:01:33;1.90;99.90
60033;DHT22;45905;50.570;10.428;2022-12-07T01:04:02;1.90;99.90
60033;DHT22;45905;50.570;10.428;2022-12-07T01:06:30;1.90;99.90
60033;DHT22;45905;50.570;10.428;2022-12-07T01:08:58;1.80;99.90
60033;DHT22;45905;50.570;10.428;2022-12-07T01:11:27;1.90;99.90
60033;DHT22;45905;50.570;10.428;2022-12-07T01:13:57;1.90;99.90
60033;DHT22;45905;50.570;10.428;2022-12-07T01:16:28;1.90;99.90
60033;DHT22;45905;50.570;10.428;2022-12-07T01:18:57;1.90;99.90
60033;DHT22;45905;50.570;10.428;2022-12-07T01:21:28;1.90;99.90
60033;DHT22;45905;50.570;10.428;2022-12-07T01:23:57;2.00;99.90
60033;DHT22;45905;50.570;10.428;2022-12-07T01:26:25;1.90;99.90
60033;DHT22;45905;50.570;10.428;2022-12-07T01:28:53;1.90;99.90
60033;DHT22;45905;50.570;10.428;2022-12-07T01:31:25;1.90;99.90
60033;DHT22;45905;50.570;10.428;2022-12-07T01:33:57;1.90;99.90
60033;DHT22;45905;50.570;10.428;2022-12-07T01:36:31;1.90;99.90
60033;DHT22;45905;50.570;10.428;2022-12-07T01:39:06;1.90;99.90
60033;DHT22;45905;50.570;10.428;2022-12-07T01:41:37;1.90;99.90
60033;DHT22;45905;50.570;10.428;2022-12-07T01:44:21;1.90;99.90
60033;DHT22;45905;50.570;10.428;2022-12-07T01:46:52;1.90;99.90
60033;DHT22;45905;50.570;10.428;2022-12-07T01:52:28;1.90;99.90
60033;DHT22;45905;50.570;10.428;2022-12-07T01:55:03;1.90;99.90
60033;DHT22;45905;50.570;10.428;2022-12-07T01:57:35;1.80;99.90
60033;DHT22;45905;50.570;10.428;2022-12-07T02:00:08;1.80;99.90
60033;DHT22;45905;50.570;10.428;2022-12-07T02:05:17;1.80;99.90
60033;DHT22;45905;50.570;10.428;2022-12-07T02:07:47;1.80;99.90
60033;DHT22;45905;50.570;10.428;2022-12-07T02:10:17;1.80;99.90
60033;DHT22;45905;50.570;10.428;2022-12-07T02:12:50;1.90;99.90
60033;DHT22;45905;50.570;10.428;2022-12-07T02:27:49;1.90;99.90
60033;DHT22;45905;50.570;10.428;2022-12-07T02:30:47;1.90;99.90
60033;DHT22;45905;50.570;10.428;2022-12-07T02:33:28;1.90;99.90
60033;DHT22;45905;50.570;10.428;2022-12-07T02:36:30;1.90;99.90
60033;DHT22;45905;50.570;10.428;2022-12-07T02:39:07;1.80;99.90
60033;DHT22;45905;50.570;10.428;2022-12-07T02:41:44;1.80;99.90
60033;DHT22;45905;50.570;10.428;2022-12-07T02:44:19;1.90;99.90
60033;DHT22;45905;50.570;10.428;2022-12-07T02:46:56;1.80;99.90
60033;DHT22;45905;50.570;10.428;2022-12-07T02:49:30;1.80;99.90
60033;DHT22;45905;50.570;10.428;2022-12-07T02:51:59;1.80;99.90
60033;DHT22;45905;50.570;10.428;2022-12-07T02:54:27;1.80;99.90
60033;DHT22;45905;50.570;10.428;2022-12-07T03:00:21;1.80;99.90
60033;DHT22;45905;50.570;10.428;2022-12-07T03:03:05;1.70;99.90
60033;DHT22;45905;50.570;10.428;2022-12-07T03:06:06;1.70;99.90
60033;DHT22;45905;50.570;10.428;2022-12-07T03:08:50;1.70;99.90
60033;DHT22;45905;50.570;10.428;2022-12-07T03:11:55;1.70;99.90
60033;DHT22;45905;50.570;10.428;2022-12-07T03:14:41;1.70;99.90
60033;DHT22;45905;50.570;10.428;2022-12-07T03:17:24;1.60;99.90
60033;DHT22;45905;50.570;10.428;2022-12-07T03:19:58;1.70;99.90
60033;DHT22;45905;50.570;10.428;2022-12-07T03:22:33;1.70;99.90
60033;DHT22;45905;50.570;10.428;2022-12-07T03:25:10;1.70;99.90
60033;DHT22;45905;50.570;10.428;2022-12-07T03:27:51;1.70;99.90
60033;DHT22;45905;50.570;10.428;2022-12-07T03:30:37;1.70;99.90
60033;DHT22;45905;50.570;10.428;2022-12-07T03:36:18;1.70;99.90
60033;DHT22;45905;50.570;10.428;2022-12-07T03:39:03;1.80;99.90
60033;DHT22;45905;50.570;10.428;2022-12-07T03:41:44;1.70;99.90
60033;DHT22;45905;50.570;10.428;2022-12-07T03:44:13;1.70;99.90
60033;DHT22;45905;50.570;10.428;2022-12-07T03:50:00;1.70;99.90
60033;DHT22;45905;50.570;10.428;2022-12-07T03:55:31;1.60;99.90
60033;DHT22;45905;50.570;10.428;2022-12-07T03:58:07;1.60;99.90
60033;DHT22;45905;50.570;10.428;2022-12-07T04:00:37;1.60;99.90
60033;DHT22;45905;50.570;10.428;2022-12-07T04:03:05;1.70;99.90
60033;DHT22;45905;50.570;10.428;2022-12-07T04:05:32;1.60;99.90
60033;DHT22;45905;50.570;10.428;2022-12-07T04:07:59;1.80;99.90
60033;DHT22;45905;50.570;10.428;2022-12-07T04:10:26;1.70;99.90
60033;DHT22;45905;50.570;10.428;2022-12-07T04:12:54;1.80;99.90
60033;DHT22;45905;50.570;10.428;2022-12-07T04:15:21;1.80;99.90
60033;DHT22;45905;50.570;10.428;2022-12-07T04:17:49;1.70;99.90
60033;DHT22;45905;50.570;10.428;2022-12-07T04:20:16;1.80;99.90
60033;DHT22;45905;50.570;10.428;2022-12-07T04:22:43;1.70;99.90
60033;DHT22;45905;50.570;10.428;2022-12-07T04:25:10;1.70;99.90
60033;DHT22;45905;50.570;10.428;2022-12-07T04:27:37;1.70;99.90
60033;DHT22;45905;50.570;10.428;2022-12-07T04:30:05;1.80;99.90
60033;DHT22;45905;50.570;10.428;2022-12-07T04:32:33;1.70;99.90
60033;DHT22;45905;50.570;10.428;2022-12-07T04:35:00;1.70;99.90
60033;DHT22;45905;50.570;10.428;2022-12-07T04:37:27;1.70;99.90
60033;DHT22;45905;50.570;10.428;2022-12-07T04:39:54;1.70;99.90
60033;DHT22;45905;50.570;10.428;2022-12-07T04:42:21;1.70;99.90
60033;DHT22;45905;50.570;10.428;2022-12-07T04:44:48;1.70;99.90
60033;DHT22;45905;50.570;10.428;2022-12-07T04:47:15;1.80;99.90
60033;DHT22;45905;50.570;10.428;2022-12-07T04:49:42;1.80;99.90
60033;DHT22;45905;50.570;10.428;2022-12-07T04:52:09;1.80;99.90
60033;DHT22;45905;50.570;10.428;2022-12-07T04:54:37;1.70;99.90
60033;DHT22;45905;50.570;10.428;2022-12-07T04:57:04;1.70;99.90
60033;DHT22;45905;50.570;10.428;2022-12-07T04:59:31;1.80;99.90
60033;DHT22;45905;50.570;10.428;2022-12-07T05:01:58;1.80;99.90
60033;DHT22;45905;50.570;10.428;2022-12-07T05:04:25;1.70;99.90
60033;DHT22;45905;50.570;10.428;2022-12-07T05:06:52;1.80;99.90
60033;DHT22;45905;50.570;10.428;2022-12-07T05:09:19;1.80;99.90
60033;DHT22;45905;50.570;10.428;2022-12-07T05:11:46;1.80;99.90
60033;DHT22;45905;50.570;10.428;2022-12-07T05:14:18;1.80;99.90
60033;DHT22;45905;50.570;10.428;2022-12-07T05:16:49;1.80;99.90
60033;DHT22;45905;50.570;10.428;2022-12-07T05:19:18;1.80;99.90
60033;DHT22;45905;50.570;10.428;2022-12-07T05:21:46;1.80;99.90
60033;DHT22;45905;50.570;10.428;2022-12-07T05:24:15;1.90;99.90
60033;DHT22;45905;50.570;10.428;2022-12-07T05:26:44;1.90;99.90
60033;DHT22;45905;50.570;10.428;2022-12-07T05:29:14;1.90;99.90
60033;DHT22;45905;50.570;10.428;2022-12-07T05:31:42;1.90;99.90
60033;DHT22;45905;50.570;10.428;2022-12-07T05:34:11;1.90;99.90
60033;DHT22;45905;50.570;10.428;2022-12-07T05:36:38;2.00;99.90
60033;DHT22;45905;50.570;10.428;2022-12-07T05:39:06;2.10;99.90
60033;DHT22;45905;50.570;10.428;2022-12-07T05:41:34;2.10;99.90
60033;DHT22;45905;50.570;10.428;2022-12-07T05:44:19;2.30;99.90
60033;DHT22;45905;50.570;10.428;2022-12-07T05:46:46;2.00;99.90
60033;DHT22;45905;50.570;10.428;2022-12-07T05:49:13;2.10;99.90
60033;DHT22;45905;50.570;10.428;2022-12-07T05:51:40;2.10;99.90
60033;DHT22;45905;50.570;10.428;2022-12-07T05:54:07;2.00;99.90
60033;DHT22;45905;50.570;10.428;2022-12-07T05:56:34;2.10;99.90
60033;DHT22;45905;50.570;10.428;2022-12-07T05:59:01;2.10;99.90
60033;DHT22;45905;50.570;10.428;2022-12-07T06:01:48;2.10;99.90
60033;DHT22;45905;50.570;10.428;2022-12-07T06:04:17;2.20;99.90
60033;DHT22;45905;50.570;10.428;2022-12-07T06:06:44;2.20;99.90
60033;DHT22;45905;50.570;10.428;2022-12-07T06:09:11;2.10;99.90
60033;DHT22;45905;50.570;10.428;2022-12-07T06:11:40;2.20;99.90
60033;DHT22;45905;50.570;10.428;2022-12-07T06:14:26;2.10;99.90
60033;DHT22;45905;50.570;10.428;2022-12-07T06:16:53;2.20;99.90
60033;DHT22;45905;50.570;10.428;2022-12-07T06:19:20;2.10;99.90
60033;DHT22;45905;50.570;10.428;2022-12-07T06:21:47;2.10;99.90
60033;DHT22;45905;50.570;10.428;2022-12-07T06:24:15;2.10;99.90
60033;DHT22;45905;50.570;10.428;2022-12-07T06:26:43;2.20;99.90
60033;DHT22;45905;50.570;10.428;2022-12-07T06:29:12;2.20;99.90
60033;DHT22;45905;50.570;10.428;2022-12-07T06:31:39;2.20;99.90
60033;DHT22;45905;50.570;10.428;2022-12-07T06:34:11;2.20;99.90
60033;DHT22;45905;50.570;10.428;2022-12-07T06:36:40;2.20;99.90
60033;DHT22;45905;50.570;10.428;2022-12-07T06:39:08;2.20;99.90
60033;DHT22;45905;50.570;10.428;2022-12-07T06:41:39;2.20;99.90
60033;DHT22;45905;50.570;10.428;2022-12-07T06:44:06;2.20;99.90
60033;DHT22;45905;50.570;10.428;2022-12-07T06:46:34;2.20;99.90
60033;DHT22;45905;50.570;10.428;2022-12-07T06:49:04;2.20;99.90
60033;DHT22;45905;50.570;10.428;2022-12-07T06:51:32;2.30;99.90
60033;DHT22;45905;50.570;10.428;2022-12-07T06:54:03;2.30;99.90
60033;DHT22;45905;50.570;10.428;2022-12-07T06:56:30;2.30;99.90
60033;DHT22;45905;50.570;10.428;2022-12-07T06:58:57;2.40;99.90
60033;DHT22;45905;50.570;10.428;2022-12-07T07:01:25;2.30;99.90
60033;DHT22;45905;50.570;10.428;2022-12-07T07:03:52;2.30;99.90
60033;DHT22;45905;50.570;10.428;2022-12-07T07:06:19;2.30;99.90
60033;DHT22;45905;50.570;10.428;2022-12-07T07:08:46;2.60;99.90
60033;DHT22;45905;50.570;10.428;2022-12-07T07:11:14;2.40;99.90
60033;DHT22;45905;50.570;10.428;2022-12-07T07:13:41;2.40;99.90
60033;DHT22;45905;50.570;10.428;2022-12-07T07:16:08;2.40;99.90
60033;DHT22;45905;50.570;10.428;2022-12-07T07:18:36;2.40;99.90
60033;DHT22;45905;50.570;10.428;2022-12-07T07:21:03;2.40;99.90
60033;DHT22;45905;50.570;10.428;2022-12-07T07:23:31;2.40;99.90
60033;DHT22;45905;50.570;10.428;2022-12-07T07:25:58;2.40;99.90
60033;DHT22;45905;50.570;10.428;2022-12-07T07:28:25;2.40;99.90
60033;DHT22;45905;50.570;10.428;2022-12-07T07:30:52;2.40;99.90
60033;DHT22;45905;50.570;10.428;2022-12-07T07:33:19;2.40;99.90
60033;DHT22;45905;50.570;10.428;2022-12-07T07:35:46;2.40;99.90
60033;DHT22;45905;50.570;10.428;2022-12-07T07:38:13;2.40;99.90
60033;DHT22;45905;50.570;10.428;2022-12-07T07:40:40;2.50;99.90
60033;DHT22;45905;50.570;10.428;2022-12-07T07:43:07;2.40;99.90
60033;DHT22;45905;50.570;10.428;2022-12-07T07:45:34;2.40;99.90
60033;DHT22;45905;50.570;10.428;2022-12-07T07:48:01;2.40;99.90
60033;DHT22;45905;50.570;10.428;2022-12-07T07:50:29;2.40;99.90
60033;DHT22;45905;50.570;10.428;2022-12-07T07:52:57;2.40;99.90
60033;DHT22;45905;50.570;10.428;2022-12-07T07:55:24;2.40;99.90
60033;DHT22;45905;50.570;10.428;2022-12-07T07:57:52;2.50;99.90
60033;DHT22;45905;50.570;10.428;2022-12-07T08:00:21;2.50;99.90
60033;DHT22;45905;50.570;10.428;2022-12-07T08:02:48;2.50;99.90
60033;DHT22;45905;50.570;10.428;2022-12-07T08:05:16;2.50;99.90
60033;DHT22;45905;50.570;10.428;2022-12-07T08:07:43;2.40;99.90
60033;DHT22;45905;50.570;10.428;2022-12-07T08:10:12;2.50;99.90
60033;DHT22;45905;50.570;10.428;2022-12-07T08:12:41;2.50;99.90
60033;DHT22;45905;50.570;10.428;2022-12-07T08:15:29;2.40;99.90
60033;DHT22;45905;50.570;10.428;2022-12-07T08:17:58;2.40;99.90
60033;DHT22;45905;50.570;10.428;2022-12-07T08:20:25;2.50;99.90
60033;DHT22;45905;50.570;10.428;2022-12-07T08:22:53;2.50;99.90
60033;DHT22;45905;50.570;10.428;2022-12-07T08:25:20;2.50;99.90
60033;DHT22;45905;50.570;10.428;2022-12-07T08:27:51;2.60;99.90
60033;DHT22;45905;50.570;10.428;2022-12-07T08:30:19;2.50;99.90
60033;DHT22;45905;50.570;10.428;2022-12-07T08:32:47;2.50;99.90
60033;DHT22;45905;50.570;10.428;2022-12-07T08:35:15;2.50;99.90
60033;DHT22;45905;50.570;10.428;2022-12-07T08:37:44;2.50;99.90
60033;DHT22;45905;50.570;10.428;2022-12-07T08:40:12;2.50;99.90
60033;DHT22;45905;50.570;10.428;2022-12-07T08:42:42;2.60;99.90
60033;DHT22;45905;50.570;10.428;2022-12-07T08:45:13;2.60;99.90
60033;DHT22;45905;50.570;10.428;2022-12-07T08:48:05;2.60;99.90
60033;DHT22;45905;50.570;10.428;2022-12-07T08:50:36;2.60;99.90
60033;DHT22;45905;50.570;10.428;2022-12-07T08:53:07;2.80;99.90
60033;DHT22;45905;50.570;10.428;2022-12-07T08:55:34;2.70;99.90
60033;DHT22;45905;50.570;10.428;2022-12-07T08:58:02;2.70;99.90
60033;DHT22;45905;50.570;10.428;2022-12-07T09:00:30;2.80;99.90
60033;DHT22;45905;50.570;10.428;2022-12-07T09:02:57;2.80;99.90
60033;DHT22;45905;50.570;10.428;2022-12-07T09:05:24;2.80;99.90
60033;DHT22;45905;50.570;10.428;2022-12-07T09:07:54;2.80;99.90
60033;DHT22;45905;50.570;10.428;2022-12-07T09:10:26;2.90;99.90
60033;DHT22;45905;50.570;10.428;2022-12-07T09:12:54;2.90;99.90
60033;DHT22;45905;50.570;10.428;2022-12-07T09:15:21;2.90;99.90
60033;DHT22;45905;50.570;10.428;2022-12-07T09:17:49;3.00;99.90
60033;DHT22;45905;50.570;10.428;2022-12-07T09:20:16;2.90;99.90
60033;DHT22;45905;50.570;10.428;2022-12-07T09:22:43;3.00;99.90
60033;DHT22;45905;50.570;10.428;2022-12-07T09:25:10;3.00;99.90
60033;DHT22;45905;50.570;10.428;2022-12-07T09:27:38;3.10;99.90
60033;DHT22;45905;50.570;10.428;2022-12-07T09:30:06;3.00;99.90
60033;DHT22;45905;50.570;10.428;2022-12-07T09:32:33;3.00;99.90
60033;DHT22;45905;50.570;10.428;2022-12-07T09:35:00;3.00;99.90
60033;DHT22;45905;50.570;10.428;2022-12-07T09:37:27;3.00;99.90
60033;DHT22;45905;50.570;10.428;2022-12-07T09:39:54;3.00;99.90
60033;DHT22;45905;50.570;10.428;2022-12-07T09:42:36;3.00;99.90
60033;DHT22;45905;50.570;10.428;2022-12-07T09:45:18;3.10;99.90
60033;DHT22;45905;50.570;10.428;2022-12-07T09:47:58;3.10;99.90
60033;DHT22;45905;50.570;10.428;2022-12-07T09:50:28;3.10;99.90
60033;DHT22;45905;50.570;10.428;2022-12-07T09:53:09;3.10;99.90
60033;DHT22;45905;50.570;10.428;2022-12-07T09:55:43;3.10;99.90
60033;DHT22;45905;50.570;10.428;2022-12-07T09:58:21;3.10;99.90
60033;DHT22;45905;50.570;10.428;2022-12-07T10:00:56;3.00;99.90
60033;DHT22;45905;50.570;10.428;2022-12-07T10:03:29;3.10;99.90
60033;DHT22;45905;50.570;10.428;2022-12-07T10:05:57;3.00;99.90
60033;DHT22;45905;50.570;10.428;2022-12-07T10:08:24;2.90;99.90
60033;DHT22;45905;50.570;10.428;2022-12-07T10:10:56;2.90;99.90
60033;DHT22;45905;50.570;10.428;2022-12-07T10:13:40;3.00;99.90
60033;DHT22;45905;50.570;10.428;2022-12-07T10:18:52;3.00;99.90
60033;DHT22;45905;50.570;10.428;2022-12-07T10:21:24;3.10;99.90
60033;DHT22;45905;50.570;10.428;2022-12-07T10:26:51;3.80;99.90
60033;DHT22;45905;50.570;10.428;2022-12-07T10:29:24;3.30;99.90
60033;DHT22;45905;50.570;10.428;2022-12-07T10:32:50;3.20;99.90
60033;DHT22;45905;50.570;10.428;2022-12-07T10:35:20;3.20;99.90
60033;DHT22;45905;50.570;10.428;2022-12-07T10:37:58;3.20;99.90
60033;DHT22;45905;50.570;10.428;2022-12-07T10:52:00;3.40;99.90
60033;DHT22;45905;50.570;10.428;2022-12-07T11:01:15;3.50;99.90
60033;DHT22;45905;50.570;10.428;2022-12-07T11:10:22;3.50;99.90
60033;DHT22;45905;50.570;10.428;2022-12-07T11:24:20;3.50;99.90
60033;DHT22;45905;50.570;10.428;2022-12-07T11:33:01;3.50;99.90
60033;DHT22;45905;50.570;10.428;2022-12-07T11:38:54;3.50;99.90
60033;DHT22;45905;50.570;10.428;2022-12-07T11:41:29;3.50;99.90
60033;DHT22;45905;50.570;10.428;2022-12-07T11:46:44;3.70;99.90
60033;DHT22;45905;50.570;10.428;2022-12-07T11:52:47;3.60;99.90
60033;DHT22;45905;50.570;10.428;2022-12-07T11:55:45;3.60;99.90
60033;DHT22;45905;50.570;10.428;2022-12-07T12:00:49;3.60;99.90
60033;DHT22;45905;50.570;10.428;2022-12-07T12:03:31;3.60;99.90
60033;DHT22;45905;50.570;10.428;2022-12-07T12:06:03;3.60;99.90
60033;DHT22;45905;50.570;10.428;2022-12-07T12:12:47;3.60;99.90
60033;DHT22;45905;50.570;10.428;2022-12-07T12:22:36;3.70;99.90
60033;DHT22;45905;50.570;10.428;2022-12-07T12:25:13;3.70;99.90
60033;DHT22;45905;50.570;10.428;2022-12-07T12:27:53;3.70;99.90
60033;DHT22;45905;50.570;10.428;2022-12-07T12:33:05;3.70;99.90
60033;DHT22;45905;50.570;10.428;2022-12-07T12:35:41;3.70;99.90
60033;DHT22;45905;50.570;10.428;2022-12-07T12:38:31;3.80;99.90
60033;DHT22;45905;50.570;10.428;2022-12-07T12:41:02;3.80;99.90
60033;DHT22;45905;50.570;10.428;2022-12-07T12:43:51;3.80;99.90
60033;DHT22;45905;50.570;10.428;2022-12-07T12:51:47;3.80;99.90
60033;DHT22;45905;50.570;10.428;2022-12-07T12:57:36;3.80;99.90
60033;DHT22;45905;50.570;10.428;2022-12-07T13:00:20;3.90;99.90
60033;DHT22;45905;50.570;10.428;2022-12-07T13:02:53;3.90;99.90
60033;DHT22;45905;50.570;10.428;2022-12-07T13:05:28;3.90;99.90
60033;DHT22;45905;50.570;10.428;2022-12-07T13:07:59;3.90;99.90
60033;DHT22;45905;50.570;10.428;2022-12-07T13:15:44;4.00;99.90
60033;DHT22;45905;50.570;10.428;2022-12-07T13:20:55;3.90;99.90
60033;DHT22;45905;50.570;10.428;2022-12-07T13:23:27;3.90;99.90
60033;DHT22;45905;50.570;10.428;2022-12-07T13:29:18;3.90;99.90
60033;DHT22;45905;50.570;10.428;2022-12-07T13:37:14;3.80;99.90
60033;DHT22;45905;50.570;10.428;2022-12-07T13:39:53;4.00;99.90
60033;DHT22;45905;50.570;10.428;2022-12-07T13:42:29;4.00;99.90
60033;DHT22;45905;50.570;10.428;2022-12-07T13:44:59;4.00;99.90
60033;DHT22;45905;50.570;10.428;2022-12-07T13:47:51;4.20;99.90
60033;DHT22;45905;50.570;10.428;2022-12-07T13:50:28;4.00;99.90
60033;DHT22;45905;50.570;10.428;2022-12-07T13:53:01;4.00;99.90
60033;DHT22;45905;50.570;10.428;2022-12-07T13:55:29;4.00;99.90
60033;DHT22;45905;50.570;10.428;2022-12-07T13:57:57;4.00;99.90
60033;DHT22;45905;50.570;10.428;2022-12-07T14:00:26;4.10;99.90
60033;DHT22;45905;50.570;10.428;2022-12-07T14:03:04;3.90;99.90
60033;DHT22;45905;50.570;10.428;2022-12-07T14:06:15;3.90;99.90
60033;DHT22;45905;50.570;10.428;2022-12-07T14:08:48;3.80;99.90
60033;DHT22;45905;50.570;10.428;2022-12-07T14:11:21;3.80;99.90
60033;DHT22;45905;50.570;10.428;2022-12-07T14:14:01;3.70;99.90
60033;DHT22;45905;50.570;10.428;2022-12-07T14:16:34;3.60;99.90
60033;DHT22;45905;50.570;10.428;2022-12-07T14:19:05;3.50;99.90
60033;DHT22;45905;50.570;10.428;2022-12-07T14:22:20;3.50;99.90
60033;DHT22;45905;50.570;10.428;2022-12-07T14:24:50;3.40;99.90
60033;DHT22;45905;50.570;10.428;2022-12-07T14:27:24;3.60;99.90
60033;DHT22;45905;50.570;10.428;2022-12-07T14:29:57;3.40;99.90
60033;DHT22;45905;50.570;10.428;2022-12-07T14:32:26;3.40;99.90
60033;DHT22;45905;50.570;10.428;2022-12-07T14:35:07;4.10;99.90
60033;DHT22;45905;50.570;10.428;2022-12-07T14:37:35;3.40;99.90
60033;DHT22;45905;50.570;10.428;2022-12-07T14:40:02;3.60;99.90
60033;DHT22;45905;50.570;10.428;2022-12-07T14:42:31;3.40;99.90
60033;DHT22;45905;50.570;10.428;2022-12-07T14:45:00;3.40;99.90
60033;DHT22;45905;50.570;10.428;2022-12-07T14:47:28;3.40;99.90
60033;DHT22;45905;50.570;10.428;2022-12-07T14:50:18;3.60;99.90
60033;DHT22;45905;50.570;10.428;2022-12-07T14:52:57;3.50;99.90
60033;DHT22;45905;50.570;10.428;2022-12-07T14:55:46;3.50;99.90
60033;DHT22;45905;50.570;10.428;2022-12-07T14:58:15;3.40;99.90
60033;DHT22;45905;50.570;10.428;2022-12-07T15:00:43;3.40;99.90
60033;DHT22;45905;50.570;10.428;2022-12-07T15:03:11;3.40;99.90
60033;DHT22;45905;50.570;10.428;2022-12-07T15:05:40;3.40;99.90
60033;DHT22;45905;50.570;10.428;2022-12-07T15:08:12;3.40;99.90
60033;DHT22;45905;50.570;10.428;2022-12-07T15:10:40;3.40;99.90
60033;DHT22;45905;50.570;10.428;2022-12-07T15:13:07;3.40;99.90
60033;DHT22;45905;50.570;10.428;2022-12-07T15:15:54;3.30;99.90
60033;DHT22;45905;50.570;10.428;2022-12-07T15:18:23;3.30;99.90
60033;DHT22;45905;50.570;10.428;2022-12-07T15:20:50;3.20;99.90
60033;DHT22;45905;50.570;10.428;2022-12-07T15:23:18;3.20;99.90
60033;DHT22;45905;50.570;10.428;2022-12-07T15:25:47;3.20;99.90
60033;DHT22;45905;50.570;10.428;2022-12-07T15:28:16;3.10;99.90
60033;DHT22;45905;50.570;10.428;2022-12-07T15:30:44;3.10;99.90
60033;DHT22;45905;50.570;10.428;2022-12-07T15:33:12;3.10;99.90
60033;DHT22;45905;50.570;10.428;2022-12-07T15:35:41;3.10;99.90
60033;DHT22;45905;50.570;10.428;2022-12-07T15:38:10;3.10;99.90
60033;DHT22;45905;50.570;10.428;2022-12-07T15:40:38;3.10;99.90
60033;DHT22;45905;50.570;10.428;2022-12-07T15:43:08;3.10;99.90
60033;DHT22;45905;50.570;10.428;2022-12-07T15:45:56;3.00;99.90
60033;DHT22;45905;50.570;10.428;2022-12-07T15:48:23;3.00;99.90
60033;DHT22;45905;50.570;10.428;2022-12-07T15:51:02;2.90;99.90
60033;DHT22;45905;50.570;10.428;2022-12-07T15:53:30;2.90;99.90
60033;DHT22;45905;50.570;10.428;2022-12-07T15:55:57;2.90;99.90
60033;DHT22;45905;50.570;10.428;2022-12-07T15:58:24;2.80;99.90
60033;DHT22;45905;50.570;10.428;2022-12-07T16:00:52;2.80;99.90
60033;DHT22;45905;50.570;10.428;2022-12-07T16:03:19;2.90;99.90
60033;DHT22;45905;50.570;10.428;2022-12-07T16:05:50;2.80;99.90
60033;DHT22;45905;50.570;10.428;2022-12-07T16:08:18;2.80;99.90
60033;DHT22;45905;50.570;10.428;2022-12-07T16:10:46;2.80;99.90
60033;DHT22;45905;50.570;10.428;2022-12-07T16:13:13;2.80;99.90
60033;DHT22;45905;50.570;10.428;2022-12-07T16:15:41;2.80;99.90
60033;DHT22;45905;50.570;10.428;2022-12-07T16:18:09;2.80;99.90
60033;DHT22;45905;50.570;10.428;2022-12-07T16:20:36;2.80;99.90
60033;DHT22;45905;50.570;10.428;2022-12-07T16:23:03;2.80;99.90
60033;DHT22;45905;50.570;10.428;2022-12-07T16:25:30;2.80;99.90
60033;DHT22;45905;50.570;10.428;2022-12-07T16:27:57;3.00;99.90
60033;DHT22;45905;50.570;10.428;2022-12-07T16:30:24;2.80;99.90
60033;DHT22;45905;50.570;10.428;2022-12-07T16:32:52;3.50;99.90
60033;DHT22;45905;50.570;10.428;2022-12-07T16:35:24;2.80;99.90
60033;DHT22;45905;50.570;10.428;2022-12-07T16:37:52;2.80;99.90
60033;DHT22;45905;50.570;10.428;2022-12-07T16:40:19;2.80;99.90
60033;DHT22;45905;50.570;10.428;2022-12-07T16:42:46;2.70;99.90
60033;DHT22;45905;50.570;10.428;2022-12-07T16:45:13;2.80;99.90
60033;DHT22;45905;50.570;10.428;2022-12-07T16:47:46;2.70;99.90
60033;DHT22;45905;50.570;10.428;2022-12-07T16:50:13;2.70;99.90
60033;DHT22;45905;50.570;10.428;2022-12-07T16:52:40;2.70;99.90
60033;DHT22;45905;50.570;10.428;2022-12-07T16:55:07;2.80;99.90
60033;DHT22;45905;50.570;10.428;2022-12-07T16:57:35;2.70;99.90
60033;DHT22;45905;50.570;10.428;2022-12-07T17:00:03;2.70;99.90
60033;DHT22;45905;50.570;10.428;2022-12-07T17:02:30;2.60;99.90
60033;DHT22;45905;50.570;10.428;2022-12-07T17:04:58;2.70;99.90
60033;DHT22;45905;50.570;10.428;2022-12-07T17:07:25;2.70;99.90
60033;DHT22;45905;50.570;10.428;2022-12-07T17:09:52;2.60;99.90
60033;DHT22;45905;50.570;10.428;2022-12-07T17:12:20;2.70;99.90
60033;DHT22;45905;50.570;10.428;2022-12-07T17:14:47;2.60;99.90
60033;DHT22;45905;50.570;10.428;2022-12-07T17:17:33;2.60;99.90
60033;DHT22;45905;50.570;10.428;2022-12-07T17:20:00;2.60;99.90
60033;DHT22;45905;50.570;10.428;2022-12-07T17:22:27;2.60;99.90
60033;DHT22;45905;50.570;10.428;2022-12-07T17:24:54;2.70;99.90
60033;DHT22;45905;50.570;10.428;2022-12-07T17:27:21;2.60;99.90
60033;DHT22;45905;50.570;10.428;2022-12-07T17:29:48;2.60;99.90
60033;DHT22;45905;50.570;10.428;2022-12-07T17:32:16;2.60;99.90
60033;DHT22;45905;50.570;10.428;2022-12-07T17:34:43;2.60;99.90
60033;DHT22;45905;50.570;10.428;2022-12-07T17:37:10;2.70;99.90
60033;DHT22;45905;50.570;10.428;2022-12-07T17:39:37;2.60;99.90
60033;DHT22;45905;50.570;10.428;2022-12-07T17:42:04;2.60;99.90
60033;DHT22;45905;50.570;10.428;2022-12-07T17:44:50;2.60;99.90
60033;DHT22;45905;50.570;10.428;2022-12-07T17:47:18;2.60;99.90
60033;DHT22;45905;50.570;10.428;2022-12-07T17:49:47;2.70;99.90
60033;DHT22;45905;50.570;10.428;2022-12-07T17:52:15;2.60;99.90
60033;DHT22;45905;50.570;10.428;2022-12-07T17:55:00;2.70;99.90
60033;DHT22;45905;50.570;10.428;2022-12-07T17:57:29;2.60;99.90
60033;DHT22;45905;50.570;10.428;2022-12-07T17:59:56;2.60;99.90
60033;DHT22;45905;50.570;10.428;2022-12-07T18:02:24;2.60;99.90
60033;DHT22;45905;50.570;10.428;2022-12-07T18:04:51;2.60;99.90
60033;DHT22;45905;50.570;10.428;2022-12-07T18:07:18;2.60;99.90